createdAt,value
2022-07-27T00:01:54.180Z,19.17
2022-07-27T00:04:21.496Z,14.23
2022-07-27T00:06:49.155Z,16.80
2022-07-27T00:09:18.418Z,15.77
2022-07-27T00:11:46.726Z,17.05
2022-07-27T00:14:14.147Z,17.45
2022-07-27T00:16:41.540Z,17.55
2022-07-27T00:19:09.543Z,15.82
2022-07-27T00:21:44.415Z,19.10
2022-07-27T00:24:13.229Z,12.95
2022-07-27T00:26:40.327Z,18.02
2022-07-27T00:29:08.209Z,17.02
2022-07-27T00:31:35.487Z,20.15
2022-07-27T00:34:02.695Z,15.52
2022-07-27T00:36:29.788Z,17.83
2022-07-27T00:38:56.844Z,16.30
2022-07-27T00:41:23.979Z,17.15
2022-07-27T00:43:59.848Z,20.92
2022-07-27T00:46:28.841Z,18.80
2022-07-27T00:48:56.252Z,17.38
2022-07-27T00:51:24.533Z,23.08
2022-07-27T00:53:55.717Z,23.02
2022-07-27T00:56:23.714Z,18.17
2022-07-27T00:58:53.680Z,22.83
2022-07-27T01:01:21.378Z,19.55
2022-07-27T01:03:48.886Z,20.73
2022-07-27T01:06:16.883Z,15.82
2022-07-27T01:09:17.293Z,18.02
2022-07-27T01:11:48.871Z,16.35
2022-07-27T01:14:17.255Z,16.48
2022-07-27T01:16:44.530Z,14.25
2022-07-27T01:19:14.186Z,17.83
2022-07-27T01:21:41.601Z,14.27
2022-07-27T01:24:09.155Z,21.10
2022-07-27T01:26:37.875Z,15.07
2022-07-27T01:29:05.719Z,17.90
2022-07-27T01:31:32.879Z,21.13
2022-07-27T01:34:00.587Z,25.45
2022-07-27T01:36:27.732Z,18.85
2022-07-27T01:38:56.248Z,21.60
2022-07-27T01:41:24.432Z,17.08
2022-07-27T01:43:51.602Z,19.15
2022-07-27T01:46:18.776Z,18.92
2022-07-27T01:48:46.014Z,17.63
2022-07-27T01:51:13.213Z,14.60
2022-07-27T01:53:40.489Z,18.05
2022-07-27T01:56:14.265Z,15.80
2022-07-27T01:58:42.673Z,19.90
2022-07-27T02:01:10.300Z,19.60
2022-07-27T02:03:37.690Z,16.17
2022-07-27T02:06:06.003Z,14.38
2022-07-27T02:08:34.327Z,18.35
2022-07-27T02:11:21.393Z,16.15
2022-07-27T02:13:50.309Z,19.52
2022-07-27T02:16:19.027Z,16.33
2022-07-27T02:18:48.710Z,15.00
2022-07-27T02:21:16.213Z,15.27
2022-07-27T02:23:45.133Z,16.42
2022-07-27T02:26:12.288Z,13.85
2022-07-27T02:28:39.442Z,14.02
2022-07-27T02:31:06.528Z,13.13
2022-07-27T02:33:33.705Z,14.00
2022-07-27T02:36:00.941Z,14.60
2022-07-27T02:38:28.159Z,18.55
2022-07-27T02:40:55.311Z,15.15
2022-07-27T02:43:23.149Z,15.35
2022-07-27T02:45:51.346Z,16.88
2022-07-27T02:48:18.793Z,13.45
2022-07-27T02:50:45.950Z,15.55
2022-07-27T02:53:13.119Z,13.85
2022-07-27T02:55:40.253Z,16.23
2022-07-27T02:58:07.504Z,17.10
2022-07-27T03:00:34.665Z,20.17
2022-07-27T03:03:01.937Z,21.27
2022-07-27T03:05:29.149Z,13.25
2022-07-27T03:07:56.267Z,20.52
2022-07-27T03:10:23.424Z,16.40
2022-07-27T03:12:50.595Z,16.48
2022-07-27T03:15:17.675Z,14.07
2022-07-27T03:17:46.061Z,15.43
2022-07-27T03:20:14.773Z,14.95
2022-07-27T03:22:42.834Z,13.82
2022-07-27T03:25:10.682Z,21.55
2022-07-27T03:27:37.893Z,19.58
2022-07-27T03:30:06.887Z,14.50
2022-07-27T03:32:33.977Z,15.45
2022-07-27T03:35:01.140Z,14.15
2022-07-27T03:37:28.246Z,13.48
2022-07-27T03:39:55.438Z,18.33
2022-07-27T03:42:22.556Z,14.80
2022-07-27T03:44:49.869Z,13.50
2022-07-27T03:47:16.944Z,14.25
2022-07-27T03:49:44.108Z,14.60
2022-07-27T03:52:17.251Z,14.32
2022-07-27T03:54:45.394Z,15.43
2022-07-27T03:57:12.445Z,17.38
2022-07-27T03:59:39.535Z,18.70
2022-07-27T04:02:08.207Z,14.02
2022-07-27T04:04:35.326Z,14.95
2022-07-27T04:07:02.412Z,16.42
2022-07-27T04:09:31.398Z,13.68
2022-07-27T04:11:59.148Z,16.50
2022-07-27T04:14:26.703Z,13.50
2022-07-27T04:16:53.915Z,14.05
2022-07-27T04:19:21.064Z,15.48
2022-07-27T04:21:48.176Z,16.85
2022-07-27T04:24:15.640Z,15.35
2022-07-27T04:26:42.849Z,12.98
2022-07-27T04:29:10.340Z,15.65
2022-07-27T04:31:37.696Z,15.75
2022-07-27T04:34:04.797Z,17.60
2022-07-27T04:36:32.084Z,16.55
2022-07-27T04:38:59.423Z,15.82
2022-07-27T04:41:30.398Z,15.07
2022-07-27T04:43:59.024Z,19.52
2022-07-27T04:46:29.682Z,17.05
2022-07-27T04:48:57.440Z,14.27
2022-07-27T04:51:24.892Z,17.00
2022-07-27T04:53:53.489Z,14.80
2022-07-27T04:56:27.355Z,13.50
2022-07-27T04:58:56.189Z,17.42
2022-07-27T05:01:23.682Z,19.15
2022-07-27T05:03:51.545Z,13.48
2022-07-27T05:06:19.089Z,17.33
2022-07-27T05:08:46.176Z,19.95
2022-07-27T05:11:14.582Z,22.13
2022-07-27T05:13:41.805Z,17.00
2022-07-27T05:16:10.726Z,16.35
2022-07-27T05:18:39.063Z,17.88
2022-07-27T05:21:07.677Z,15.27
2022-07-27T05:23:35.274Z,14.77
2022-07-27T05:26:03.215Z,20.83
2022-07-27T05:28:30.423Z,18.08
2022-07-27T05:30:57.607Z,14.05
2022-07-27T05:33:25.499Z,16.60
2022-07-27T05:35:52.740Z,17.00
2022-07-27T05:38:19.838Z,17.20
2022-07-27T05:40:47.508Z,18.23
2022-07-27T05:43:14.847Z,20.85
2022-07-27T05:45:42.078Z,20.70
2022-07-27T05:48:09.287Z,16.58
2022-07-27T05:50:36.627Z,20.10
2022-07-27T05:53:03.817Z,17.70
2022-07-27T05:55:30.998Z,19.25
2022-07-27T05:57:58.118Z,17.20
2022-07-27T06:00:25.221Z,16.48
2022-07-27T06:02:52.390Z,19.98
2022-07-27T06:05:19.548Z,20.40
2022-07-27T06:07:58.916Z,25.55
2022-07-27T06:10:32.398Z,20.80
2022-07-27T06:13:01.895Z,20.35
2022-07-27T06:15:29.057Z,23.38
2022-07-27T06:17:56.473Z,15.43
2022-07-27T06:20:24.960Z,15.15
2022-07-27T06:22:55.255Z,12.50
2022-07-27T06:25:34.111Z,14.73
2022-07-27T06:28:04.165Z,17.40
2022-07-27T06:30:31.553Z,16.20
2022-07-27T06:32:59.156Z,15.23
2022-07-27T06:35:27.248Z,15.27
2022-07-27T06:37:54.476Z,13.88
2022-07-27T06:40:22.011Z,17.20
2022-07-27T06:42:49.283Z,17.95
2022-07-27T06:45:16.747Z,12.73
2022-07-27T06:47:48.921Z,16.40
2022-07-27T06:50:20.379Z,10.63
2022-07-27T06:52:48.731Z,19.67
2022-07-27T06:55:15.958Z,11.68
2022-07-27T06:57:43.448Z,9.98
2022-07-27T07:00:11.897Z,10.00
2022-07-27T07:02:50.386Z,12.40
2022-07-27T07:05:17.569Z,12.18
2022-07-27T07:07:44.701Z,11.73
2022-07-27T07:10:11.815Z,22.27
2022-07-27T07:12:38.954Z,15.52
2022-07-27T07:15:07.986Z,13.27
2022-07-27T07:17:35.212Z,12.40
2022-07-27T07:20:03.491Z,13.38
2022-07-27T07:22:30.639Z,11.23
2022-07-27T07:25:02.453Z,12.38
2022-07-27T07:27:30.148Z,15.60
2022-07-27T07:29:57.401Z,13.35
2022-07-27T07:32:28.972Z,13.98
2022-07-27T07:35:01.101Z,15.10
2022-07-27T07:37:31.583Z,10.02
2022-07-27T07:40:13.059Z,13.00
2022-07-27T07:43:00.115Z,9.60
2022-07-27T07:45:30.313Z,11.40
2022-07-27T07:47:58.184Z,10.07
2022-07-27T07:50:26.127Z,8.73
2022-07-27T07:52:54.090Z,6.63
2022-07-27T07:55:28.966Z,11.60
2022-07-27T07:57:57.661Z,5.78
2022-07-27T08:00:24.908Z,7.47
2022-07-27T08:02:55.858Z,7.75
2022-07-27T08:05:23.671Z,13.13
2022-07-27T08:07:51.694Z,10.07
2022-07-27T08:10:22.256Z,7.20
2022-07-27T08:12:54.970Z,9.63
2022-07-27T08:15:34.605Z,11.30
2022-07-27T08:18:05.852Z,8.25
2022-07-27T08:20:33.712Z,9.88
2022-07-27T08:23:00.863Z,9.20
2022-07-27T08:25:28.120Z,7.88
2022-07-27T08:27:55.589Z,7.10
2022-07-27T08:30:24.459Z,5.70
2022-07-27T08:33:03.955Z,12.45
2022-07-27T08:35:34.044Z,13.05
2022-07-27T08:38:04.075Z,6.63
2022-07-27T08:40:47.593Z,9.73
2022-07-27T08:43:21.887Z,8.75
2022-07-27T08:45:58.072Z,10.00
2022-07-27T08:48:28.457Z,10.95
2022-07-27T08:50:56.230Z,7.43
2022-07-27T08:53:25.406Z,12.85
2022-07-27T08:55:52.804Z,8.88
2022-07-27T08:58:20.217Z,7.00
2022-07-27T09:00:51.403Z,9.63
2022-07-27T09:03:21.961Z,6.95
2022-07-27T09:05:56.064Z,6.45
2022-07-27T09:08:31.126Z,7.57
2022-07-27T09:10:59.777Z,6.22
2022-07-27T09:13:34.054Z,6.82
2022-07-27T09:16:18.608Z,7.70
2022-07-27T09:18:48.279Z,15.10
2022-07-27T09:21:25.112Z,8.70
2022-07-27T09:24:44.426Z,6.53
2022-07-27T09:27:05.831Z,10.73
2022-07-27T09:29:37.123Z,5.85
2022-07-27T09:32:15.991Z,6.50
2022-07-27T09:34:44.003Z,10.10
2022-07-27T09:37:12.392Z,11.02
2022-07-27T09:39:39.609Z,8.90
2022-07-27T09:42:42.279Z,5.43
2022-07-27T09:45:01.867Z,8.07
2022-07-27T09:47:31.565Z,10.02
2022-07-27T09:50:19.688Z,8.43
2022-07-27T09:52:47.481Z,11.70
2022-07-27T09:55:14.649Z,6.95
2022-07-27T09:57:58.608Z,8.18
2022-07-27T10:00:27.343Z,5.45
2022-07-27T10:02:55.630Z,6.20
2022-07-27T10:05:23.620Z,6.93
2022-07-27T10:07:53.803Z,5.85
2022-07-27T10:10:22.634Z,10.23
2022-07-27T10:12:54.499Z,8.50
2022-07-27T10:15:26.090Z,7.68
2022-07-27T10:18:07.104Z,8.95
2022-07-27T10:20:39.694Z,7.38
2022-07-27T10:23:07.484Z,9.88
2022-07-27T10:25:38.099Z,9.55
2022-07-27T10:28:18.640Z,10.00
2022-07-27T10:30:52.068Z,13.15
2022-07-27T10:33:46.356Z,10.60
2022-07-27T10:36:31.814Z,9.73
2022-07-27T10:39:02.952Z,10.57
2022-07-27T10:41:35.810Z,8.98
2022-07-27T10:44:28.330Z,9.82
2022-07-27T10:47:02.323Z,7.05
2022-07-27T10:49:41.613Z,9.50
2022-07-27T10:52:42.372Z,8.00
2022-07-27T10:55:36.526Z,8.77
2022-07-27T10:58:03.500Z,10.38
2022-07-27T11:00:54.031Z,10.18
2022-07-27T11:03:34.273Z,9.75
2022-07-27T11:06:33.010Z,9.98
2022-07-27T11:10:00.127Z,11.77
2022-07-27T11:11:53.839Z,8.60
2022-07-27T11:14:30.547Z,8.68
2022-07-27T11:17:47.262Z,11.23
2022-07-27T11:20:03.199Z,8.30
2022-07-27T11:25:27.747Z,11.00
2022-07-27T11:27:54.941Z,11.85
2022-07-27T11:30:25.494Z,9.70
2022-07-27T11:32:52.730Z,8.07
2022-07-27T11:35:20.482Z,7.13
2022-07-27T11:38:06.771Z,13.50
2022-07-27T11:41:06.634Z,13.18
2022-07-27T11:43:42.120Z,8.65
2022-07-27T11:46:30.695Z,13.80
2022-07-27T11:49:09.027Z,8.02
2022-07-27T11:51:46.307Z,7.13
2022-07-27T11:54:29.330Z,8.02
2022-07-27T11:56:57.421Z,8.15
2022-07-27T11:59:34.608Z,9.95
2022-07-27T12:02:09.860Z,12.27
2022-07-27T12:04:40.035Z,11.77
2022-07-27T12:07:15.883Z,8.80
2022-07-27T12:09:53.144Z,3.85
2022-07-27T12:12:35.046Z,5.75
2022-07-27T12:18:04.789Z,5.93
2022-07-27T12:20:34.528Z,5.45
2022-07-27T12:23:09.416Z,7.72
2022-07-27T12:25:39.000Z,4.50
2022-07-27T12:28:09.861Z,3.05
2022-07-27T12:30:47.009Z,3.47
2022-07-27T12:33:40.521Z,2.83
2022-07-27T12:36:09.740Z,3.42
2022-07-27T12:38:43.495Z,3.50
2022-07-27T12:41:11.901Z,1.98
2022-07-27T12:43:39.138Z,3.33
2022-07-27T12:46:14.297Z,3.25
2022-07-27T12:48:43.231Z,2.85
2022-07-27T12:51:11.190Z,2.70
2022-07-27T12:53:39.136Z,3.25
2022-07-27T12:56:12.721Z,2.05
2022-07-27T12:58:40.122Z,3.40
2022-07-27T13:01:07.428Z,5.68
2022-07-27T13:03:37.071Z,3.78
2022-07-27T13:06:09.236Z,4.20
2022-07-27T13:08:40.790Z,6.80
2022-07-27T13:11:07.908Z,5.07
2022-07-27T13:13:35.290Z,4.38
2022-07-27T13:16:02.440Z,7.65
2022-07-27T13:18:29.583Z,6.28
2022-07-27T13:20:56.983Z,4.30
2022-07-27T13:23:24.209Z,5.85
2022-07-27T13:25:51.419Z,10.98
2022-07-27T13:28:18.697Z,4.32
2022-07-27T13:30:45.923Z,8.13
2022-07-27T13:33:12.974Z,4.45
2022-07-27T13:35:40.092Z,8.95
2022-07-27T13:38:08.546Z,6.47
2022-07-27T13:40:45.189Z,4.80
2022-07-27T13:43:12.428Z,3.95
2022-07-27T13:45:43.384Z,3.45
2022-07-27T13:48:12.129Z,6.38
2022-07-27T13:50:40.101Z,5.97
2022-07-27T13:53:07.219Z,6.82
2022-07-27T13:55:35.349Z,8.70
2022-07-27T13:58:02.522Z,5.07
2022-07-27T14:00:29.686Z,4.13
2022-07-27T14:02:57.090Z,6.82
2022-07-27T14:05:24.544Z,4.82
2022-07-27T14:07:54.062Z,4.75
2022-07-27T14:10:39.878Z,5.28
2022-07-27T14:15:50.467Z,5.25
2022-07-27T14:18:30.994Z,6.82
2022-07-27T14:21:03.514Z,3.42
2022-07-27T14:23:31.445Z,5.93
2022-07-27T14:26:00.610Z,8.65
2022-07-27T14:28:29.583Z,5.53
2022-07-27T14:30:57.887Z,17.25
2022-07-27T14:33:35.149Z,4.38
2022-07-27T14:36:06.598Z,7.20
2022-07-27T14:38:33.829Z,11.77
2022-07-27T14:41:01.460Z,3.95
2022-07-27T14:43:30.250Z,8.65
2022-07-27T14:45:58.133Z,4.30
2022-07-27T14:48:42.167Z,4.88
2022-07-27T14:51:12.440Z,7.43
2022-07-27T14:53:39.674Z,4.50
2022-07-27T14:56:06.887Z,3.53
2022-07-27T14:58:34.031Z,6.75
2022-07-27T15:01:02.047Z,3.22
2022-07-27T15:03:29.279Z,5.75
2022-07-27T15:05:56.433Z,7.63
2022-07-27T15:08:24.650Z,9.05
2022-07-27T15:10:52.255Z,7.05
2022-07-27T15:13:19.474Z,3.78
2022-07-27T15:15:50.985Z,8.32
2022-07-27T15:18:20.995Z,9.38
2022-07-27T15:20:48.643Z,5.80
2022-07-27T15:23:16.791Z,4.85
2022-07-27T15:25:44.156Z,10.50
2022-07-27T15:28:12.091Z,5.28
2022-07-27T15:30:41.005Z,5.50
2022-07-27T15:33:08.125Z,5.32
2022-07-27T15:35:35.948Z,5.45
2022-07-27T15:38:03.081Z,5.47
2022-07-27T15:40:41.554Z,6.18
2022-07-27T15:43:15.678Z,4.03
2022-07-27T15:45:49.832Z,4.88
2022-07-27T15:48:19.765Z,7.25
2022-07-27T15:50:53.505Z,4.97
2022-07-27T15:53:22.352Z,4.80
2022-07-27T15:55:51.869Z,3.65
2022-07-27T15:58:21.029Z,5.60
2022-07-27T16:00:51.913Z,8.15
2022-07-27T16:03:20.120Z,2.08
2022-07-27T16:05:49.412Z,4.93
2022-07-27T16:08:18.808Z,3.38
2022-07-27T16:10:48.358Z,5.03
2022-07-27T16:13:16.245Z,4.18
2022-07-27T16:16:02.504Z,3.60
2022-07-27T16:18:30.670Z,2.67
2022-07-27T16:21:00.442Z,5.10
2022-07-27T16:23:28.000Z,2.85
2022-07-27T16:26:06.928Z,2.80
2022-07-27T16:28:42.424Z,3.85
2022-07-27T16:31:12.293Z,3.72
2022-07-27T16:33:41.201Z,4.63
2022-07-27T16:36:09.142Z,7.72
2022-07-27T16:38:37.922Z,5.78
2022-07-27T16:41:09.532Z,4.93
2022-07-27T16:43:39.163Z,5.72
2022-07-27T16:46:11.914Z,3.40
2022-07-27T16:48:42.405Z,5.07
2022-07-27T16:51:12.892Z,6.60
2022-07-27T16:53:42.844Z,5.05
2022-07-27T16:56:11.484Z,8.55
2022-07-27T16:58:39.417Z,4.40
2022-07-27T17:01:06.742Z,4.60
2022-07-27T17:03:34.301Z,4.70
2022-07-27T17:06:06.076Z,4.78
2022-07-27T17:08:35.852Z,3.03
2022-07-27T17:11:06.250Z,4.88
2022-07-27T17:13:35.346Z,4.50
2022-07-27T17:16:07.707Z,7.22
2022-07-27T17:18:40.180Z,2.60
2022-07-27T17:21:13.208Z,6.97
2022-07-27T17:23:42.211Z,5.57
2022-07-27T17:26:10.862Z,6.38
2022-07-27T17:28:40.109Z,7.35
2022-07-27T17:31:12.610Z,5.25
2022-07-27T17:33:40.825Z,4.53
2022-07-27T17:36:14.638Z,6.40
2022-07-27T17:38:46.376Z,3.92
2022-07-27T17:41:14.744Z,3.75
2022-07-27T17:43:41.941Z,2.85
2022-07-27T17:46:11.380Z,5.63
2022-07-27T17:48:39.984Z,8.13
2022-07-27T17:51:08.679Z,8.50
2022-07-27T17:53:36.344Z,4.38
2022-07-27T17:56:04.719Z,4.07
2022-07-27T17:58:31.863Z,7.38
2022-07-27T18:00:59.088Z,6.25
2022-07-27T18:03:26.792Z,6.70
2022-07-27T18:05:53.969Z,9.63
2022-07-27T18:08:21.358Z,6.63
2022-07-27T18:10:49.805Z,6.50
2022-07-27T18:13:17.757Z,9.50
2022-07-27T18:15:47.800Z,4.70
2022-07-27T18:18:19.743Z,5.22
2022-07-27T18:20:48.335Z,6.07
2022-07-27T18:23:16.257Z,5.57
2022-07-27T18:25:46.983Z,8.02
2022-07-27T18:28:16.292Z,12.23
2022-07-27T18:30:49.604Z,6.45
2022-07-27T18:33:17.837Z,5.35
2022-07-27T18:35:46.555Z,11.48
2022-07-27T18:38:14.316Z,3.90
2022-07-27T18:40:46.236Z,10.65
2022-07-27T18:43:14.117Z,3.88
2022-07-27T18:45:41.581Z,4.47
2022-07-27T18:48:10.365Z,5.35
2022-07-27T18:50:39.993Z,7.05
2022-07-27T18:53:08.529Z,4.88
2022-07-27T18:55:36.306Z,7.47
2022-07-27T18:58:03.969Z,6.28
2022-07-27T19:00:31.882Z,6.75
2022-07-27T19:02:59.590Z,5.63
2022-07-27T19:05:32.524Z,5.85
2022-07-27T19:08:12.906Z,4.45
2022-07-27T19:10:44.444Z,6.85
2022-07-27T19:13:12.706Z,6.50
2022-07-27T19:15:40.435Z,5.28
2022-07-27T19:18:08.247Z,6.20
2022-07-27T19:20:36.777Z,8.13
2022-07-27T19:23:07.239Z,4.07
2022-07-27T19:25:34.774Z,5.82
2022-07-27T19:28:03.914Z,5.28
2022-07-27T19:30:31.160Z,3.97
2022-07-27T19:32:58.552Z,7.20
2022-07-27T19:35:25.772Z,7.93
2022-07-27T19:37:52.878Z,6.07
2022-07-27T19:43:07.822Z,5.50
2022-07-27T19:45:36.427Z,8.88
2022-07-27T19:48:05.709Z,8.82
2022-07-27T19:50:33.466Z,6.90
2022-07-27T19:53:01.813Z,10.00
2022-07-27T19:55:29.150Z,4.72
2022-07-27T19:57:56.440Z,6.47
2022-07-27T20:00:23.780Z,6.13
2022-07-27T20:02:51.025Z,5.95
2022-07-27T20:05:18.355Z,5.80
2022-07-27T20:07:45.657Z,5.15
2022-07-27T20:10:12.966Z,6.90
2022-07-27T20:12:40.049Z,4.90
2022-07-27T20:15:08.042Z,12.40
2022-07-27T20:17:40.536Z,7.63
2022-07-27T20:20:09.791Z,6.60
2022-07-27T20:22:39.298Z,10.00
2022-07-27T20:25:14.905Z,7.45
2022-07-27T20:27:42.895Z,5.47
2022-07-27T20:30:11.744Z,5.35
2022-07-27T20:32:39.101Z,5.40
2022-07-27T20:35:06.718Z,4.97
2022-07-27T20:37:33.901Z,6.05
2022-07-27T20:40:01.446Z,7.60
2022-07-27T20:42:31.869Z,4.35
2022-07-27T20:44:59.150Z,7.50
2022-07-27T20:47:31.115Z,7.65
2022-07-27T20:50:01.311Z,6.30
2022-07-27T20:52:28.401Z,4.97
2022-07-27T20:54:55.474Z,8.65
2022-07-27T20:57:22.558Z,6.97
2022-07-27T20:59:50.218Z,4.32
2022-07-27T21:02:17.443Z,8.73
2022-07-27T21:04:44.585Z,3.03
2022-07-27T21:07:11.716Z,5.13
2022-07-27T21:09:38.833Z,6.90
2022-07-27T21:12:07.990Z,5.43
2022-07-27T21:14:35.105Z,3.67
2022-07-27T21:17:02.620Z,4.15
2022-07-27T21:19:30.233Z,5.10
2022-07-27T21:21:57.306Z,5.72
2022-07-27T21:24:26.116Z,6.60
2022-07-27T21:26:53.602Z,5.13
2022-07-27T21:29:22.138Z,5.72
2022-07-27T21:31:50.525Z,4.10
2022-07-27T21:34:20.698Z,3.65
2022-07-27T21:36:48.712Z,6.70
2022-07-27T21:39:18.207Z,5.50
2022-07-27T21:41:45.644Z,5.90
2022-07-27T21:44:13.410Z,6.57
2022-07-27T21:46:40.844Z,4.03
2022-07-27T21:49:08.349Z,4.18
2022-07-27T21:51:35.641Z,5.68
2022-07-27T21:54:02.846Z,10.65
2022-07-27T21:56:30.016Z,7.75
2022-07-27T21:58:57.563Z,5.95
2022-07-27T22:01:24.636Z,6.05
2022-07-27T22:03:51.947Z,4.10
2022-07-27T22:06:19.275Z,8.35
2022-07-27T22:08:46.633Z,8.57
2022-07-27T22:11:13.962Z,5.07
2022-07-27T22:13:41.345Z,4.90
2022-07-27T22:16:09.189Z,6.00
2022-07-27T22:18:36.405Z,7.28
2022-07-27T22:21:03.543Z,5.53
2022-07-27T22:23:30.610Z,5.72
2022-07-27T22:25:58.119Z,5.57
2022-07-27T22:28:26.091Z,6.85
2022-07-27T22:31:19.763Z,6.60
2022-07-27T22:33:44.366Z,8.63
2022-07-27T22:36:12.329Z,6.18
2022-07-27T22:38:39.652Z,4.47
2022-07-27T22:41:07.193Z,5.15
2022-07-27T22:43:34.597Z,6.43
2022-07-27T22:46:04.172Z,6.45
2022-07-27T22:48:31.795Z,5.70
2022-07-27T22:50:58.977Z,7.32
2022-07-27T22:53:26.183Z,10.27
2022-07-27T22:55:53.884Z,5.80
2022-07-27T22:58:21.753Z,6.47
2022-07-27T23:00:49.183Z,5.60
2022-07-27T23:03:16.592Z,8.73
2022-07-27T23:05:43.789Z,5.32
2022-07-27T23:08:10.971Z,6.03
2022-07-27T23:10:47.299Z,4.20
2022-07-27T23:13:18.443Z,7.80
2022-07-27T23:15:47.392Z,7.03
2022-07-27T23:18:16.607Z,6.85
2022-07-27T23:20:44.217Z,6.97
2022-07-27T23:23:16.097Z,5.70
2022-07-27T23:25:47.035Z,6.90
2022-07-27T23:28:15.418Z,7.55
2022-07-27T23:30:43.140Z,8.70
2022-07-27T23:33:10.484Z,7.35
2022-07-27T23:35:37.707Z,4.75
2022-07-27T23:38:04.888Z,6.15
2022-07-27T23:40:32.054Z,6.90
2022-07-27T23:42:59.193Z,8.73
2022-07-27T23:45:26.659Z,8.30
2022-07-27T23:47:53.841Z,5.03
2022-07-27T23:50:21.084Z,7.40
2022-07-27T23:52:48.223Z,4.28
2022-07-27T23:55:15.351Z,5.65
2022-07-27T23:57:42.782Z,9.07
